sensor_id;sensor_type;location;lat;lon;timestamp;temperature;humidity
3756;DHT22;1893;52.526;13.360;2023-03-19T00:02:00;10.50;99.90
3756;DHT22;1893;52.526;13.360;2023-03-19T00:04:26;10.50;99.90
3756;DHT22;1893;52.526;13.360;2023-03-19T00:06:52;10.60;99.90
3756;DHT22;1893;52.526;13.360;2023-03-19T00:09:19;10.50;99.90
3756;DHT22;1893;52.526;13.360;2023-03-19T00:11:45;10.50;99.90
3756;DHT22;1893;52.526;13.360;2023-03-19T00:14:10;10.50;99.90
3756;DHT22;1893;52.526;13.360;2023-03-19T00:16:36;10.50;99.90
3756;DHT22;1893;52.526;13.360;2023-03-19T00:19:02;10.50;99.90
3756;DHT22;1893;52.526;13.360;2023-03-19T00:21:28;10.40;99.90
3756;DHT22;1893;52.526;13.360;2023-03-19T00:23:54;10.40;99.90
3756;DHT22;1893;52.526;13.360;2023-03-19T00:26:26;10.40;99.90
3756;DHT22;1893;52.526;13.360;2023-03-19T00:28:51;10.40;99.90
3756;DHT22;1893;52.526;13.360;2023-03-19T00:31:17;10.30;99.90
3756;DHT22;1893;52.526;13.360;2023-03-19T00:33:42;10.20;99.90
3756;DHT22;1893;52.526;13.360;2023-03-19T00:36:09;10.20;99.90
3756;DHT22;1893;52.526;13.360;2023-03-19T00:38:35;10.20;99.90
3756;DHT22;1893;52.526;13.360;2023-03-19T00:41:02;10.10;99.90
3756;DHT22;1893;52.526;13.360;2023-03-19T00:43:28;10.10;99.90
3756;DHT22;1893;52.526;13.360;2023-03-19T00:45:53;10.10;99.90
3756;DHT22;1893;52.526;13.360;2023-03-19T00:48:19;10.00;99.90
3756;DHT22;1893;52.526;13.360;2023-03-19T00:50:46;10.00;99.90
3756;DHT22;1893;52.526;13.360;2023-03-19T00:53:12;9.90;99.90
3756;DHT22;1893;52.526;13.360;2023-03-19T00:55:37;9.90;99.90
3756;DHT22;1893;52.526;13.360;2023-03-19T00:58:03;9.90;99.90
3756;DHT22;1893;52.526;13.360;2023-03-19T01:00:31;9.90;99.90
3756;DHT22;1893;52.526;13.360;2023-03-19T01:02:57;9.80;99.90
3756;DHT22;1893;52.526;13.360;2023-03-19T01:05:23;9.80;99.90
3756;DHT22;1893;52.526;13.360;2023-03-19T01:07:49;9.80;99.90
3756;DHT22;1893;52.526;13.360;2023-03-19T01:10:17;9.70;99.90
3756;DHT22;1893;52.526;13.360;2023-03-19T01:12:43;9.70;99.90
3756;DHT22;1893;52.526;13.360;2023-03-19T01:15:09;9.60;99.90
3756;DHT22;1893;52.526;13.360;2023-03-19T01:17:35;9.60;99.90
3756;DHT22;1893;52.526;13.360;2023-03-19T01:20:02;9.60;99.90
3756;DHT22;1893;52.526;13.360;2023-03-19T01:22:28;9.60;99.90
3756;DHT22;1893;52.526;13.360;2023-03-19T01:24:53;9.60;99.90
3756;DHT22;1893;52.526;13.360;2023-03-19T01:27:19;9.60;99.90
3756;DHT22;1893;52.526;13.360;2023-03-19T01:29:45;9.60;99.90
3756;DHT22;1893;52.526;13.360;2023-03-19T01:32:11;9.70;99.90
3756;DHT22;1893;52.526;13.360;2023-03-19T01:34:37;9.60;99.90
3756;DHT22;1893;52.526;13.360;2023-03-19T01:37:02;9.50;99.90
3756;DHT22;1893;52.526;13.360;2023-03-19T01:39:28;9.50;99.90
3756;DHT22;1893;52.526;13.360;2023-03-19T01:41:53;9.60;99.90
3756;DHT22;1893;52.526;13.360;2023-03-19T01:44:31;9.50;99.90
3756;DHT22;1893;52.526;13.360;2023-03-19T01:46:58;9.40;99.90
3756;DHT22;1893;52.526;13.360;2023-03-19T01:49:26;9.40;99.90
3756;DHT22;1893;52.526;13.360;2023-03-19T01:51:54;9.30;99.90
3756;DHT22;1893;52.526;13.360;2023-03-19T01:54:23;9.50;99.90
3756;DHT22;1893;52.526;13.360;2023-03-19T01:56:56;9.30;99.90
3756;DHT22;1893;52.526;13.360;2023-03-19T01:59:29;9.30;99.90
3756;DHT22;1893;52.526;13.360;2023-03-19T02:01:58;9.30;99.90
3756;DHT22;1893;52.526;13.360;2023-03-19T02:04:26;9.20;99.90
3756;DHT22;1893;52.526;13.360;2023-03-19T02:06:57;9.20;99.90
3756;DHT22;1893;52.526;13.360;2023-03-19T02:09:24;9.30;99.90
3756;DHT22;1893;52.526;13.360;2023-03-19T02:11:50;9.30;99.90
3756;DHT22;1893;52.526;13.360;2023-03-19T02:14:17;9.20;99.90
3756;DHT22;1893;52.526;13.360;2023-03-19T02:16:43;9.20;99.90
3756;DHT22;1893;52.526;13.360;2023-03-19T02:19:12;9.20;99.90
3756;DHT22;1893;52.526;13.360;2023-03-19T02:21:40;9.20;99.90
3756;DHT22;1893;52.526;13.360;2023-03-19T02:24:24;9.30;99.90
3756;DHT22;1893;52.526;13.360;2023-03-19T02:26:50;9.20;99.90
3756;DHT22;1893;52.526;13.360;2023-03-19T02:29:16;9.30;99.90
3756;DHT22;1893;52.526;13.360;2023-03-19T02:31:42;9.30;99.90
3756;DHT22;1893;52.526;13.360;2023-03-19T02:36:50;9.30;99.90
3756;DHT22;1893;52.526;13.360;2023-03-19T02:39:30;9.40;99.90
3756;DHT22;1893;52.526;13.360;2023-03-19T02:41:57;9.30;99.90
3756;DHT22;1893;52.526;13.360;2023-03-19T02:44:23;9.30;99.90
3756;DHT22;1893;52.526;13.360;2023-03-19T02:46:50;9.30;99.90
3756;DHT22;1893;52.526;13.360;2023-03-19T02:49:16;9.30;99.90
3756;DHT22;1893;52.526;13.360;2023-03-19T02:51:43;9.40;99.90
3756;DHT22;1893;52.526;13.360;2023-03-19T02:54:09;9.40;99.90
3756;DHT22;1893;52.526;13.360;2023-03-19T02:56:35;9.40;99.90
3756;DHT22;1893;52.526;13.360;2023-03-19T02:59:01;9.30;99.90
3756;DHT22;1893;52.526;13.360;2023-03-19T03:01:26;9.40;99.90
3756;DHT22;1893;52.526;13.360;2023-03-19T03:03:52;9.40;99.90
3756;DHT22;1893;52.526;13.360;2023-03-19T03:06:18;9.40;99.90
3756;DHT22;1893;52.526;13.360;2023-03-19T03:08:44;9.40;99.90
3756;DHT22;1893;52.526;13.360;2023-03-19T03:11:09;9.40;99.90
3756;DHT22;1893;52.526;13.360;2023-03-19T03:13:35;9.30;99.90
3756;DHT22;1893;52.526;13.360;2023-03-19T03:16:01;9.40;99.90
3756;DHT22;1893;52.526;13.360;2023-03-19T03:18:27;9.40;99.90
3756;DHT22;1893;52.526;13.360;2023-03-19T03:20:52;9.30;99.90
3756;DHT22;1893;52.526;13.360;2023-03-19T03:23:19;9.30;99.90
3756;DHT22;1893;52.526;13.360;2023-03-19T03:25:48;9.30;99.90
3756;DHT22;1893;52.526;13.360;2023-03-19T03:28:14;9.30;99.90
3756;DHT22;1893;52.526;13.360;2023-03-19T03:30:40;9.30;99.90
3756;DHT22;1893;52.526;13.360;2023-03-19T03:33:06;9.20;99.90
3756;DHT22;1893;52.526;13.360;2023-03-19T03:35:31;9.30;99.90
3756;DHT22;1893;52.526;13.360;2023-03-19T03:37:57;9.50;99.90
3756;DHT22;1893;52.526;13.360;2023-03-19T03:40:23;9.30;99.90
3756;DHT22;1893;52.526;13.360;2023-03-19T03:42:49;9.20;99.90
3756;DHT22;1893;52.526;13.360;2023-03-19T03:45:15;9.30;99.90
3756;DHT22;1893;52.526;13.360;2023-03-19T03:47:41;9.20;99.90
3756;DHT22;1893;52.526;13.360;2023-03-19T03:50:07;9.20;99.90
3756;DHT22;1893;52.526;13.360;2023-03-19T03:52:35;9.20;99.90
3756;DHT22;1893;52.526;13.360;2023-03-19T03:55:01;9.10;99.90
3756;DHT22;1893;52.526;13.360;2023-03-19T03:57:27;9.10;99.90
3756;DHT22;1893;52.526;13.360;2023-03-19T03:59:53;9.10;99.90
3756;DHT22;1893;52.526;13.360;2023-03-19T04:02:19;9.10;99.90
3756;DHT22;1893;52.526;13.360;2023-03-19T04:04:45;9.10;99.90
3756;DHT22;1893;52.526;13.360;2023-03-19T04:07:10;9.10;99.90
3756;DHT22;1893;52.526;13.360;2023-03-19T04:09:36;9.00;99.90
3756;DHT22;1893;52.526;13.360;2023-03-19T04:12:02;9.10;99.90
3756;DHT22;1893;52.526;13.360;2023-03-19T04:14:28;9.00;99.90
3756;DHT22;1893;52.526;13.360;2023-03-19T04:16:54;9.00;99.90
3756;DHT22;1893;52.526;13.360;2023-03-19T04:19:19;9.00;99.90
3756;DHT22;1893;52.526;13.360;2023-03-19T04:21:45;9.00;99.90
3756;DHT22;1893;52.526;13.360;2023-03-19T04:24:11;9.00;99.90
3756;DHT22;1893;52.526;13.360;2023-03-19T04:26:37;9.00;99.90
3756;DHT22;1893;52.526;13.360;2023-03-19T04:29:05;9.00;99.90
3756;DHT22;1893;52.526;13.360;2023-03-19T04:31:30;8.90;99.90
3756;DHT22;1893;52.526;13.360;2023-03-19T04:33:56;8.90;99.90
3756;DHT22;1893;52.526;13.360;2023-03-19T04:36:22;8.90;99.90
3756;DHT22;1893;52.526;13.360;2023-03-19T04:38:48;8.90;99.90
3756;DHT22;1893;52.526;13.360;2023-03-19T04:41:14;8.90;99.90
3756;DHT22;1893;52.526;13.360;2023-03-19T04:43:42;8.90;99.90
3756;DHT22;1893;52.526;13.360;2023-03-19T04:46:07;8.90;99.90
3756;DHT22;1893;52.526;13.360;2023-03-19T04:48:33;8.90;99.90
3756;DHT22;1893;52.526;13.360;2023-03-19T04:51:01;8.90;99.90
3756;DHT22;1893;52.526;13.360;2023-03-19T04:53:28;9.00;99.90
3756;DHT22;1893;52.526;13.360;2023-03-19T04:55:53;9.10;99.90
3756;DHT22;1893;52.526;13.360;2023-03-19T04:58:19;9.00;99.90
3756;DHT22;1893;52.526;13.360;2023-03-19T05:00:45;9.10;99.90
3756;DHT22;1893;52.526;13.360;2023-03-19T05:03:13;8.90;99.90
3756;DHT22;1893;52.526;13.360;2023-03-19T05:05:38;8.90;99.90
3756;DHT22;1893;52.526;13.360;2023-03-19T05:08:04;9.00;99.90
3756;DHT22;1893;52.526;13.360;2023-03-19T05:10:29;8.90;99.90
3756;DHT22;1893;52.526;13.360;2023-03-19T05:12:56;8.90;99.90
3756;DHT22;1893;52.526;13.360;2023-03-19T05:15:22;8.80;99.90
3756;DHT22;1893;52.526;13.360;2023-03-19T05:17:47;8.80;99.90
3756;DHT22;1893;52.526;13.360;2023-03-19T05:20:13;8.60;99.90
3756;DHT22;1893;52.526;13.360;2023-03-19T05:22:39;8.60;99.90
3756;DHT22;1893;52.526;13.360;2023-03-19T05:25:06;8.60;99.90
3756;DHT22;1893;52.526;13.360;2023-03-19T05:27:31;8.50;99.90
3756;DHT22;1893;52.526;13.360;2023-03-19T05:29:57;8.50;99.90
3756;DHT22;1893;52.526;13.360;2023-03-19T05:32:22;8.50;99.90
3756;DHT22;1893;52.526;13.360;2023-03-19T05:34:49;8.50;1.00
3756;DHT22;1893;52.526;13.360;2023-03-19T05:37:15;8.40;1.00
3756;DHT22;1893;52.526;13.360;2023-03-19T05:39:41;8.40;99.90
3756;DHT22;1893;52.526;13.360;2023-03-19T05:42:07;8.40;99.90
3756;DHT22;1893;52.526;13.360;2023-03-19T05:44:32;8.30;99.90
3756;DHT22;1893;52.526;13.360;2023-03-19T05:46:58;8.60;1.00
3756;DHT22;1893;52.526;13.360;2023-03-19T05:49:24;8.70;1.00
3756;DHT22;1893;52.526;13.360;2023-03-19T05:51:50;8.90;1.00
3756;DHT22;1893;52.526;13.360;2023-03-19T05:54:15;9.10;1.00
3756;DHT22;1893;52.526;13.360;2023-03-19T05:56:41;9.20;99.90
3756;DHT22;1893;52.526;13.360;2023-03-19T05:59:07;9.40;99.90
3756;DHT22;1893;52.526;13.360;2023-03-19T06:01:32;9.40;99.90
3756;DHT22;1893;52.526;13.360;2023-03-19T06:03:58;9.40;99.90
3756;DHT22;1893;52.526;13.360;2023-03-19T06:06:23;9.50;99.90
3756;DHT22;1893;52.526;13.360;2023-03-19T06:08:49;9.40;99.90
3756;DHT22;1893;52.526;13.360;2023-03-19T06:11:15;9.50;99.90
3756;DHT22;1893;52.526;13.360;2023-03-19T06:13:41;9.60;99.90
3756;DHT22;1893;52.526;13.360;2023-03-19T06:16:07;9.60;41.90
3756;DHT22;1893;52.526;13.360;2023-03-19T06:18:33;9.70;1.00
3756;DHT22;1893;52.526;13.360;2023-03-19T06:20:59;9.70;54.40
3756;DHT22;1893;52.526;13.360;2023-03-19T06:23:25;9.70;26.90
3756;DHT22;1893;52.526;13.360;2023-03-19T06:25:51;9.70;1.00
3756;DHT22;1893;52.526;13.360;2023-03-19T06:28:16;9.80;1.00
3756;DHT22;1893;52.526;13.360;2023-03-19T06:30:42;9.90;1.00
3756;DHT22;1893;52.526;13.360;2023-03-19T06:33:08;10.10;1.00
3756;DHT22;1893;52.526;13.360;2023-03-19T06:35:34;10.20;1.00
3756;DHT22;1893;52.526;13.360;2023-03-19T06:38:00;10.30;1.00
3756;DHT22;1893;52.526;13.360;2023-03-19T06:40:25;10.70;1.00
3756;DHT22;1893;52.526;13.360;2023-03-19T06:42:51;11.00;1.00
3756;DHT22;1893;52.526;13.360;2023-03-19T06:45:17;11.10;1.00
3756;DHT22;1893;52.526;13.360;2023-03-19T06:47:46;11.00;99.90
3756;DHT22;1893;52.526;13.360;2023-03-19T06:50:13;11.00;1.00
3756;DHT22;1893;52.526;13.360;2023-03-19T06:52:39;10.80;99.90
3756;DHT22;1893;52.526;13.360;2023-03-19T06:55:06;10.60;1.00
3756;DHT22;1893;52.526;13.360;2023-03-19T06:57:32;10.60;19.30
3756;DHT22;1893;52.526;13.360;2023-03-19T06:59:58;10.50;99.90
3756;DHT22;1893;52.526;13.360;2023-03-19T07:02:23;10.50;1.00
3756;DHT22;1893;52.526;13.360;2023-03-19T07:04:49;10.50;1.00
3756;DHT22;1893;52.526;13.360;2023-03-19T07:07:15;10.30;73.00
3756;DHT22;1893;52.526;13.360;2023-03-19T07:09:40;10.30;99.90
3756;DHT22;1893;52.526;13.360;2023-03-19T07:12:06;10.00;99.90
3756;DHT22;1893;52.526;13.360;2023-03-19T07:14:32;9.50;1.00
3756;DHT22;1893;52.526;13.360;2023-03-19T07:16:58;9.30;99.90
3756;DHT22;1893;52.526;13.360;2023-03-19T07:19:23;9.10;99.90
3756;DHT22;1893;52.526;13.360;2023-03-19T07:21:49;9.10;99.90
3756;DHT22;1893;52.526;13.360;2023-03-19T07:24:14;9.00;99.90
3756;DHT22;1893;52.526;13.360;2023-03-19T07:26:40;8.90;99.90
3756;DHT22;1893;52.526;13.360;2023-03-19T07:29:07;8.90;99.90
3756;DHT22;1893;52.526;13.360;2023-03-19T07:31:32;8.90;99.90
3756;DHT22;1893;52.526;13.360;2023-03-19T07:33:58;9.00;99.90
3756;DHT22;1893;52.526;13.360;2023-03-19T07:36:24;9.20;1.00
3756;DHT22;1893;52.526;13.360;2023-03-19T07:38:49;9.00;1.00
3756;DHT22;1893;52.526;13.360;2023-03-19T07:41:16;9.00;1.00
3756;DHT22;1893;52.526;13.360;2023-03-19T07:43:41;9.00;1.00
3756;DHT22;1893;52.526;13.360;2023-03-19T07:46:07;8.90;1.00
3756;DHT22;1893;52.526;13.360;2023-03-19T07:48:33;9.10;1.00
3756;DHT22;1893;52.526;13.360;2023-03-19T07:50:58;9.10;1.00
3756;DHT22;1893;52.526;13.360;2023-03-19T07:53:24;9.20;1.00
3756;DHT22;1893;52.526;13.360;2023-03-19T07:55:50;9.20;1.00
3756;DHT22;1893;52.526;13.360;2023-03-19T07:58:15;9.30;1.00
3756;DHT22;1893;52.526;13.360;2023-03-19T08:00:42;9.30;1.00
3756;DHT22;1893;52.526;13.360;2023-03-19T08:03:09;9.30;1.00
3756;DHT22;1893;52.526;13.360;2023-03-19T08:05:35;9.20;1.00
3756;DHT22;1893;52.526;13.360;2023-03-19T08:08:00;9.20;1.00
3756;DHT22;1893;52.526;13.360;2023-03-19T08:10:26;9.20;1.00
3756;DHT22;1893;52.526;13.360;2023-03-19T08:12:51;9.20;1.00
3756;DHT22;1893;52.526;13.360;2023-03-19T08:15:17;9.20;1.00
3756;DHT22;1893;52.526;13.360;2023-03-19T08:17:43;9.20;1.00
3756;DHT22;1893;52.526;13.360;2023-03-19T08:20:10;9.20;1.00
3756;DHT22;1893;52.526;13.360;2023-03-19T08:22:38;9.20;1.00
3756;DHT22;1893;52.526;13.360;2023-03-19T08:25:04;9.20;1.00
3756;DHT22;1893;52.526;13.360;2023-03-19T08:27:31;9.20;1.00
3756;DHT22;1893;52.526;13.360;2023-03-19T08:30:00;9.20;1.00
3756;DHT22;1893;52.526;13.360;2023-03-19T08:32:26;9.10;1.00
3756;DHT22;1893;52.526;13.360;2023-03-19T08:34:52;9.10;1.00
3756;DHT22;1893;52.526;13.360;2023-03-19T08:37:17;9.00;1.00
3756;DHT22;1893;52.526;13.360;2023-03-19T08:39:43;9.00;1.00
3756;DHT22;1893;52.526;13.360;2023-03-19T08:42:09;9.00;1.00
3756;DHT22;1893;52.526;13.360;2023-03-19T08:44:34;9.00;1.00
3756;DHT22;1893;52.526;13.360;2023-03-19T08:47:00;9.00;1.00
3756;DHT22;1893;52.526;13.360;2023-03-19T08:49:25;8.90;1.00
3756;DHT22;1893;52.526;13.360;2023-03-19T08:51:51;9.00;13.70
3756;DHT22;1893;52.526;13.360;2023-03-19T08:54:17;8.90;28.60
3756;DHT22;1893;52.526;13.360;2023-03-19T08:56:43;8.90;49.50
3756;DHT22;1893;52.526;13.360;2023-03-19T08:59:08;8.90;74.30
3756;DHT22;1893;52.526;13.360;2023-03-19T09:01:34;9.00;91.10
3756;DHT22;1893;52.526;13.360;2023-03-19T09:04:00;9.10;99.90
3756;DHT22;1893;52.526;13.360;2023-03-19T09:06:26;9.00;99.90
3756;DHT22;1893;52.526;13.360;2023-03-19T09:08:52;9.00;99.90
3756;DHT22;1893;52.526;13.360;2023-03-19T09:11:17;9.10;99.90
3756;DHT22;1893;52.526;13.360;2023-03-19T09:13:43;9.10;99.90
3756;DHT22;1893;52.526;13.360;2023-03-19T09:16:09;9.20;99.90
3756;DHT22;1893;52.526;13.360;2023-03-19T09:18:35;9.20;99.90
3756;DHT22;1893;52.526;13.360;2023-03-19T09:21:01;9.30;99.90
3756;DHT22;1893;52.526;13.360;2023-03-19T09:23:27;9.40;99.90
3756;DHT22;1893;52.526;13.360;2023-03-19T09:25:53;9.50;99.90
3756;DHT22;1893;52.526;13.360;2023-03-19T09:28:19;9.60;99.90
3756;DHT22;1893;52.526;13.360;2023-03-19T09:30:46;9.60;99.90
3756;DHT22;1893;52.526;13.360;2023-03-19T09:33:12;9.60;99.90
3756;DHT22;1893;52.526;13.360;2023-03-19T09:35:38;9.60;99.90
3756;DHT22;1893;52.526;13.360;2023-03-19T09:38:04;9.60;99.90
3756;DHT22;1893;52.526;13.360;2023-03-19T09:40:43;9.60;99.90
3756;DHT22;1893;52.526;13.360;2023-03-19T09:46:21;9.90;99.90
3756;DHT22;1893;52.526;13.360;2023-03-19T09:48:53;10.30;99.90
3756;DHT22;1893;52.526;13.360;2023-03-19T09:51:28;10.70;99.90
3756;DHT22;1893;52.526;13.360;2023-03-19T09:54:02;11.00;99.90
3756;DHT22;1893;52.526;13.360;2023-03-19T09:56:31;11.20;38.50
3756;DHT22;1893;52.526;13.360;2023-03-19T09:58:57;11.20;1.00
3756;DHT22;1893;52.526;13.360;2023-03-19T10:01:32;11.30;1.00
3756;DHT22;1893;52.526;13.360;2023-03-19T10:04:03;11.40;1.00
3756;DHT22;1893;52.526;13.360;2023-03-19T10:06:35;11.50;1.00
3756;DHT22;1893;52.526;13.360;2023-03-19T10:09:25;11.60;1.00
3756;DHT22;1893;52.526;13.360;2023-03-19T10:17:56;11.70;99.90
3756;DHT22;1893;52.526;13.360;2023-03-19T10:25:58;11.50;99.90
3756;DHT22;1893;52.526;13.360;2023-03-19T10:28:28;11.60;99.90
3756;DHT22;1893;52.526;13.360;2023-03-19T10:31:17;11.50;99.90
3756;DHT22;1893;52.526;13.360;2023-03-19T10:36:35;12.10;99.90
3756;DHT22;1893;52.526;13.360;2023-03-19T10:39:01;12.20;99.90
3756;DHT22;1893;52.526;13.360;2023-03-19T10:41:49;12.20;99.90
3756;DHT22;1893;52.526;13.360;2023-03-19T10:44:27;12.40;99.90
3756;DHT22;1893;52.526;13.360;2023-03-19T10:46:58;12.50;99.90
3756;DHT22;1893;52.526;13.360;2023-03-19T10:49:24;13.10;99.90
3756;DHT22;1893;52.526;13.360;2023-03-19T10:51:51;13.80;99.90
3756;DHT22;1893;52.526;13.360;2023-03-19T10:54:25;14.30;99.90
3756;DHT22;1893;52.526;13.360;2023-03-19T10:56:58;14.20;99.90
3756;DHT22;1893;52.526;13.360;2023-03-19T10:59:35;13.90;99.90
3756;DHT22;1893;52.526;13.360;2023-03-19T11:02:23;13.70;99.90
3756;DHT22;1893;52.526;13.360;2023-03-19T11:07:50;13.60;99.90
3756;DHT22;1893;52.526;13.360;2023-03-19T11:10:24;13.80;99.90
3756;DHT22;1893;52.526;13.360;2023-03-19T11:13:19;14.10;99.90
3756;DHT22;1893;52.526;13.360;2023-03-19T11:15:47;13.90;99.90
3756;DHT22;1893;52.526;13.360;2023-03-19T11:18:49;13.90;99.90
3756;DHT22;1893;52.526;13.360;2023-03-19T11:21:22;13.70;99.90
3756;DHT22;1893;52.526;13.360;2023-03-19T11:23:52;13.40;99.90
3756;DHT22;1893;52.526;13.360;2023-03-19T11:26:23;13.30;99.90
3756;DHT22;1893;52.526;13.360;2023-03-19T11:28:53;13.30;99.90
3756;DHT22;1893;52.526;13.360;2023-03-19T11:31:25;13.30;99.90
3756;DHT22;1893;52.526;13.360;2023-03-19T11:33:55;13.50;99.90
3756;DHT22;1893;52.526;13.360;2023-03-19T11:36:29;13.40;99.90
3756;DHT22;1893;52.526;13.360;2023-03-19T11:44:30;13.40;99.90
3756;DHT22;1893;52.526;13.360;2023-03-19T11:47:10;13.40;99.90
3756;DHT22;1893;52.526;13.360;2023-03-19T11:49:45;13.50;99.90
3756;DHT22;1893;52.526;13.360;2023-03-19T11:52:47;13.40;99.90
3756;DHT22;1893;52.526;13.360;2023-03-19T11:55:30;13.40;99.90
3756;DHT22;1893;52.526;13.360;2023-03-19T12:01:26;13.40;99.90
3756;DHT22;1893;52.526;13.360;2023-03-19T12:15:19;13.50;99.90
3756;DHT22;1893;52.526;13.360;2023-03-19T12:26:04;13.60;99.90
3756;DHT22;1893;52.526;13.360;2023-03-19T12:34:13;13.60;99.90
3756;DHT22;1893;52.526;13.360;2023-03-19T12:37:11;13.70;99.90
3756;DHT22;1893;52.526;13.360;2023-03-19T12:39:42;13.80;99.90
3756;DHT22;1893;52.526;13.360;2023-03-19T12:42:14;14.00;99.90
3756;DHT22;1893;52.526;13.360;2023-03-19T12:44:49;13.90;99.90
3756;DHT22;1893;52.526;13.360;2023-03-19T12:47:35;14.10;99.90
3756;DHT22;1893;52.526;13.360;2023-03-19T12:50:09;14.20;99.90
3756;DHT22;1893;52.526;13.360;2023-03-19T12:52:40;14.30;99.90
3756;DHT22;1893;52.526;13.360;2023-03-19T12:57:57;14.40;99.90
3756;DHT22;1893;52.526;13.360;2023-03-19T13:00:54;14.20;99.90
3756;DHT22;1893;52.526;13.360;2023-03-19T13:06:42;14.30;99.90
3756;DHT22;1893;52.526;13.360;2023-03-19T13:09:43;14.80;99.90
3756;DHT22;1893;52.526;13.360;2023-03-19T13:12:18;15.40;99.90
3756;DHT22;1893;52.526;13.360;2023-03-19T13:20:18;16.60;99.90
3756;DHT22;1893;52.526;13.360;2023-03-19T13:22:52;16.90;99.90
3756;DHT22;1893;52.526;13.360;2023-03-19T13:25:32;16.80;99.90
3756;DHT22;1893;52.526;13.360;2023-03-19T13:27:59;16.90;99.90
3756;DHT22;1893;52.526;13.360;2023-03-19T13:30:25;16.80;99.90
3756;DHT22;1893;52.526;13.360;2023-03-19T13:32:59;16.60;99.90
3756;DHT22;1893;52.526;13.360;2023-03-19T13:35:39;16.40;99.90
3756;DHT22;1893;52.526;13.360;2023-03-19T13:38:16;16.30;99.90
3756;DHT22;1893;52.526;13.360;2023-03-19T13:40:56;16.40;99.90
3756;DHT22;1893;52.526;13.360;2023-03-19T13:45:52;16.70;99.90
3756;DHT22;1893;52.526;13.360;2023-03-19T13:48:32;16.60;99.90
3756;DHT22;1893;52.526;13.360;2023-03-19T14:01:57;16.30;99.90
3756;DHT22;1893;52.526;13.360;2023-03-19T14:04:31;16.20;99.90
3756;DHT22;1893;52.526;13.360;2023-03-19T14:07:18;16.00;99.90
3756;DHT22;1893;52.526;13.360;2023-03-19T14:09:47;16.00;99.90
3756;DHT22;1893;52.526;13.360;2023-03-19T14:14:49;16.00;99.90
3756;DHT22;1893;52.526;13.360;2023-03-19T14:17:20;16.40;99.90
3756;DHT22;1893;52.526;13.360;2023-03-19T14:19:47;16.30;99.90
3756;DHT22;1893;52.526;13.360;2023-03-19T14:23:01;16.40;99.90
3756;DHT22;1893;52.526;13.360;2023-03-19T14:25:25;16.70;99.90
3756;DHT22;1893;52.526;13.360;2023-03-19T14:27:59;16.60;99.90
3756;DHT22;1893;52.526;13.360;2023-03-19T14:30:39;16.70;99.90
3756;DHT22;1893;52.526;13.360;2023-03-19T14:36:01;17.00;99.90
3756;DHT22;1893;52.526;13.360;2023-03-19T14:38:37;17.30;99.90
3756;DHT22;1893;52.526;13.360;2023-03-19T14:41:05;16.90;99.90
3756;DHT22;1893;52.526;13.360;2023-03-19T14:46:05;17.30;99.90
3756;DHT22;1893;52.526;13.360;2023-03-19T14:51:11;17.30;99.90
3756;DHT22;1893;52.526;13.360;2023-03-19T14:53:55;17.40;99.90
3756;DHT22;1893;52.526;13.360;2023-03-19T14:56:30;17.30;99.90
3756;DHT22;1893;52.526;13.360;2023-03-19T14:58:57;17.40;99.90
3756;DHT22;1893;52.526;13.360;2023-03-19T15:01:28;17.30;99.90
3756;DHT22;1893;52.526;13.360;2023-03-19T15:04:02;17.20;99.90
3756;DHT22;1893;52.526;13.360;2023-03-19T15:06:37;17.20;99.90
3756;DHT22;1893;52.526;13.360;2023-03-19T15:09:08;17.30;99.90
3756;DHT22;1893;52.526;13.360;2023-03-19T15:11:53;17.10;99.90
3756;DHT22;1893;52.526;13.360;2023-03-19T15:14:51;17.00;99.90
3756;DHT22;1893;52.526;13.360;2023-03-19T15:17:27;16.80;99.90
3756;DHT22;1893;52.526;13.360;2023-03-19T15:19:54;16.80;99.90
3756;DHT22;1893;52.526;13.360;2023-03-19T15:22:25;16.70;99.90
3756;DHT22;1893;52.526;13.360;2023-03-19T15:24:51;16.70;99.90
3756;DHT22;1893;52.526;13.360;2023-03-19T15:27:22;16.40;99.90
3756;DHT22;1893;52.526;13.360;2023-03-19T15:29:49;16.60;99.90
3756;DHT22;1893;52.526;13.360;2023-03-19T15:32:32;16.80;99.90
3756;DHT22;1893;52.526;13.360;2023-03-19T15:34:58;17.00;99.90
3756;DHT22;1893;52.526;13.360;2023-03-19T15:37:24;17.10;99.90
3756;DHT22;1893;52.526;13.360;2023-03-19T15:39:53;17.20;99.90
3756;DHT22;1893;52.526;13.360;2023-03-19T15:42:21;17.10;99.90
3756;DHT22;1893;52.526;13.360;2023-03-19T15:45:17;17.00;99.90
3756;DHT22;1893;52.526;13.360;2023-03-19T15:50:17;17.00;99.90
3756;DHT22;1893;52.526;13.360;2023-03-19T15:52:49;17.10;99.90
3756;DHT22;1893;52.526;13.360;2023-03-19T15:55:17;16.90;99.90
3756;DHT22;1893;52.526;13.360;2023-03-19T15:57:45;16.80;99.90
3756;DHT22;1893;52.526;13.360;2023-03-19T16:00:13;16.80;99.90
3756;DHT22;1893;52.526;13.360;2023-03-19T16:02:40;16.70;99.90
3756;DHT22;1893;52.526;13.360;2023-03-19T16:05:20;16.80;99.90
3756;DHT22;1893;52.526;13.360;2023-03-19T16:07:51;16.60;99.90
3756;DHT22;1893;52.526;13.360;2023-03-19T16:10:40;16.50;99.90
3756;DHT22;1893;52.526;13.360;2023-03-19T16:13:39;16.40;99.90
3756;DHT22;1893;52.526;13.360;2023-03-19T16:16:13;16.40;99.90
3756;DHT22;1893;52.526;13.360;2023-03-19T16:18:52;16.30;99.90
3756;DHT22;1893;52.526;13.360;2023-03-19T16:21:35;16.30;99.90
3756;DHT22;1893;52.526;13.360;2023-03-19T16:26:35;16.30;99.90
3756;DHT22;1893;52.526;13.360;2023-03-19T16:29:06;16.20;99.90
3756;DHT22;1893;52.526;13.360;2023-03-19T16:31:41;16.20;99.90
3756;DHT22;1893;52.526;13.360;2023-03-19T16:34:34;16.10;99.90
3756;DHT22;1893;52.526;13.360;2023-03-19T16:37:01;16.20;99.90
3756;DHT22;1893;52.526;13.360;2023-03-19T16:42:44;15.90;99.90
3756;DHT22;1893;52.526;13.360;2023-03-19T16:47:49;15.70;99.90
3756;DHT22;1893;52.526;13.360;2023-03-19T16:50:16;15.70;99.90
3756;DHT22;1893;52.526;13.360;2023-03-19T16:52:43;15.70;99.90
3756;DHT22;1893;52.526;13.360;2023-03-19T16:55:24;15.70;99.90
3756;DHT22;1893;52.526;13.360;2023-03-19T16:58:02;15.70;99.90
3756;DHT22;1893;52.526;13.360;2023-03-19T17:00:30;15.60;99.90
3756;DHT22;1893;52.526;13.360;2023-03-19T17:02:56;15.60;99.90
3756;DHT22;1893;52.526;13.360;2023-03-19T17:05:23;15.40;99.90
3756;DHT22;1893;52.526;13.360;2023-03-19T17:07:49;15.40;99.90
3756;DHT22;1893;52.526;13.360;2023-03-19T17:10:16;15.30;99.90
3756;DHT22;1893;52.526;13.360;2023-03-19T17:12:44;15.20;99.90
3756;DHT22;1893;52.526;13.360;2023-03-19T17:15:33;15.20;99.90
3756;DHT22;1893;52.526;13.360;2023-03-19T17:18:01;15.20;99.90
3756;DHT22;1893;52.526;13.360;2023-03-19T17:20:33;15.20;99.90
3756;DHT22;1893;52.526;13.360;2023-03-19T17:23:00;15.10;99.90
3756;DHT22;1893;52.526;13.360;2023-03-19T17:25:25;15.00;99.90
3756;DHT22;1893;52.526;13.360;2023-03-19T17:27:51;14.90;99.90
3756;DHT22;1893;52.526;13.360;2023-03-19T17:30:20;14.80;99.90
3756;DHT22;1893;52.526;13.360;2023-03-19T17:32:47;14.70;99.90
3756;DHT22;1893;52.526;13.360;2023-03-19T17:35:16;14.70;99.90
3756;DHT22;1893;52.526;13.360;2023-03-19T17:37:42;14.60;99.90
3756;DHT22;1893;52.526;13.360;2023-03-19T17:40:21;14.50;99.90
3756;DHT22;1893;52.526;13.360;2023-03-19T17:42:48;14.50;99.90
3756;DHT22;1893;52.526;13.360;2023-03-19T17:45:17;14.50;99.90
3756;DHT22;1893;52.526;13.360;2023-03-19T17:47:46;14.40;99.90
3756;DHT22;1893;52.526;13.360;2023-03-19T17:50:20;14.40;99.90
3756;DHT22;1893;52.526;13.360;2023-03-19T17:52:47;14.40;99.90
3756;DHT22;1893;52.526;13.360;2023-03-19T17:55:25;14.30;99.90